createdAt,value
2023-02-13T00:01:25.799Z,0.71
2023-02-13T00:03:54.719Z,0.45
2023-02-13T00:06:23.332Z,0.45
2023-02-13T00:08:51.757Z,0.57
2023-02-13T00:11:20.934Z,0.78
2023-02-13T00:13:49.614Z,0.37
2023-02-13T00:16:17.878Z,0.83
2023-02-13T00:18:46.014Z,0.60
2023-02-13T00:21:15.202Z,0.55
2023-02-13T00:23:43.505Z,0.72
2023-02-13T00:26:15.653Z,0.80
2023-02-13T00:28:46.515Z,0.79
2023-02-13T00:31:19.690Z,0.54
2023-02-13T00:33:49.275Z,0.77
2023-02-13T00:36:23.495Z,0.79
2023-02-13T00:38:54.792Z,0.51
2023-02-13T00:41:23.410Z,0.82
2023-02-13T00:43:52.836Z,0.83
2023-02-13T00:46:21.171Z,0.84
2023-02-13T00:48:49.963Z,0.77
2023-02-13T00:51:18.469Z,0.83
2023-02-13T00:53:47.068Z,0.84
2023-02-13T00:56:17.147Z,0.83
2023-02-13T00:58:46.590Z,0.58
2023-02-13T01:01:14.771Z,0.90
2023-02-13T01:03:43.199Z,0.91
2023-02-13T01:06:11.803Z,0.87
2023-02-13T01:08:41.028Z,0.84
2023-02-13T01:11:10.455Z,0.96
2023-02-13T01:13:38.715Z,0.98
2023-02-13T01:16:07.653Z,0.98
2023-02-13T01:18:35.878Z,0.72
2023-02-13T01:21:08.496Z,0.90
2023-02-13T01:23:38.993Z,0.69
2023-02-13T01:26:11.364Z,0.94
2023-02-13T01:28:39.601Z,0.77
2023-02-13T01:31:07.866Z,0.77
2023-02-13T01:33:36.847Z,1.00
2023-02-13T01:36:14.804Z,0.93
2023-02-13T01:38:43.142Z,0.64
2023-02-13T01:41:11.619Z,0.77
2023-02-13T01:44:44.466Z,1.02
2023-02-13T01:47:15.542Z,1.08
2023-02-13T01:49:47.598Z,0.62
2023-02-13T01:52:17.050Z,1.06
2023-02-13T01:54:47.135Z,0.76
2023-02-13T01:57:23.506Z,1.07
2023-02-13T02:00:17.866Z,1.05
2023-02-13T02:03:03.366Z,1.04
2023-02-13T02:05:35.079Z,1.00
2023-02-13T02:08:08.427Z,1.05
2023-02-13T02:10:38.566Z,1.03
2023-02-13T02:13:20.820Z,1.03
2023-02-13T02:15:50.392Z,1.00
2023-02-13T02:18:26.116Z,0.68
2023-02-13T02:21:09.649Z,0.98
2023-02-13T02:23:59.483Z,0.97
2023-02-13T02:27:20.290Z,0.96
2023-02-13T02:30:14.493Z,0.95
2023-02-13T02:33:23.137Z,0.98
2023-02-13T02:36:27.130Z,0.98
2023-02-13T02:39:16.250Z,0.93
2023-02-13T02:41:54.582Z,0.99
2023-02-13T02:44:43.305Z,0.98
2023-02-13T02:48:00.782Z,1.00
2023-02-13T02:51:03.292Z,0.73
2023-02-13T02:54:42.924Z,1.00
2023-02-13T02:57:21.912Z,0.96
2023-02-13T03:00:17.281Z,0.77
2023-02-13T03:03:04.158Z,1.02
2023-02-13T03:05:54.685Z,0.76
2023-02-13T03:08:43.208Z,1.04
2023-02-13T03:11:30.099Z,1.02
2023-02-13T03:14:01.273Z,0.78
2023-02-13T03:16:48.358Z,1.02
2023-02-13T03:19:53.233Z,1.03
2023-02-13T03:22:45.599Z,1.01
2023-02-13T03:25:38.837Z,1.05
2023-02-13T03:28:42.038Z,1.03
2023-02-13T03:31:38.061Z,0.84
2023-02-13T03:34:15.877Z,1.11
2023-02-13T03:37:22.795Z,1.11
2023-02-13T03:40:13.240Z,1.08
2023-02-13T03:43:11.262Z,1.15
2023-02-13T03:45:57.565Z,0.93
2023-02-13T03:48:49.818Z,1.13
2023-02-13T03:51:55.934Z,1.17
2023-02-13T03:54:46.685Z,1.00
2023-02-13T03:57:38.933Z,1.23
2023-02-13T04:00:13.033Z,1.22
2023-02-13T04:03:18.806Z,1.25
2023-02-13T04:06:12.196Z,1.29
2023-02-13T04:08:40.425Z,1.20
2023-02-13T04:11:25.778Z,1.31
2023-02-13T04:14:07.954Z,1.34
2023-02-13T04:16:45.915Z,1.23
2023-02-13T04:19:14.269Z,1.29
2023-02-13T04:21:42.801Z,1.39
2023-02-13T04:24:10.898Z,1.40
2023-02-13T04:26:43.684Z,1.39
2023-02-13T04:29:11.890Z,1.37
2023-02-13T04:31:40.643Z,1.23
2023-02-13T04:34:08.967Z,1.34
2023-02-13T04:36:40.093Z,1.45
2023-02-13T04:39:08.165Z,1.34
2023-02-13T04:41:36.662Z,1.54
2023-02-13T04:44:05.231Z,1.62
2023-02-13T04:46:33.457Z,1.62
2023-02-13T04:49:01.977Z,1.45
2023-02-13T04:51:30.396Z,1.51
2023-02-13T04:53:58.599Z,1.72
2023-02-13T04:56:26.853Z,1.76
2023-02-13T04:58:56.678Z,1.82
2023-02-13T05:01:24.802Z,1.80
2023-02-13T05:03:53.265Z,1.69
2023-02-13T05:06:21.576Z,1.94
2023-02-13T05:08:50.011Z,2.01
2023-02-13T05:11:18.287Z,2.03
2023-02-13T05:13:46.364Z,2.04
2023-02-13T05:16:14.568Z,2.05
2023-02-13T05:18:43.118Z,2.02
2023-02-13T05:21:30.308Z,2.11
2023-02-13T05:23:58.656Z,2.08
2023-02-13T05:26:26.639Z,2.12
2023-02-13T05:29:13.283Z,2.14
2023-02-13T05:31:41.541Z,1.97
2023-02-13T05:34:09.915Z,1.93
2023-02-13T05:36:38.338Z,2.15
2023-02-13T05:39:07.515Z,1.86
2023-02-13T05:41:35.872Z,1.85
2023-02-13T05:44:04.222Z,2.09
2023-02-13T05:46:33.332Z,2.10
2023-02-13T05:49:03.178Z,2.04
2023-02-13T05:51:33.378Z,2.14
2023-02-13T05:54:01.544Z,2.10
2023-02-13T05:56:29.548Z,1.89
2023-02-13T05:58:58.205Z,2.09
2023-02-13T06:01:26.657Z,2.08
2023-02-13T06:03:56.276Z,1.82
2023-02-13T06:06:26.052Z,2.16
2023-02-13T06:08:54.042Z,2.18
2023-02-13T06:11:22.617Z,2.06
2023-02-13T06:13:51.064Z,2.28
2023-02-13T06:16:19.230Z,2.30
2023-02-13T06:18:47.442Z,2.13
2023-02-13T06:21:15.686Z,2.36
2023-02-13T06:23:43.855Z,2.46
2023-02-13T06:26:12.498Z,2.50
2023-02-13T06:28:41.273Z,2.48
2023-02-13T06:31:09.965Z,2.47
2023-02-13T06:33:39.539Z,2.54
2023-02-13T06:36:08.310Z,2.55
2023-02-13T06:38:36.847Z,2.55
2023-02-13T06:41:05.681Z,2.37
2023-02-13T06:43:34.092Z,2.59
2023-02-13T06:46:06.863Z,2.62
2023-02-13T06:48:35.909Z,2.43
2023-02-13T06:51:04.329Z,2.72
2023-02-13T06:53:32.785Z,2.37
2023-02-13T06:56:06.951Z,2.77
2023-02-13T06:58:35.764Z,2.77
2023-02-13T07:01:04.045Z,2.80
2023-02-13T07:03:33.707Z,2.89
2023-02-13T07:06:02.227Z,2.55
2023-02-13T07:08:31.197Z,2.70
2023-02-13T07:10:59.559Z,2.96
2023-02-13T07:13:28.056Z,2.88
2023-02-13T07:16:01.329Z,2.93
2023-02-13T07:18:30.272Z,2.92
2023-02-13T07:20:59.079Z,2.95
2023-02-13T07:23:27.981Z,2.86
2023-02-13T07:26:00.489Z,2.86
2023-02-13T07:28:30.719Z,2.95
2023-02-13T07:31:03.559Z,2.77
2023-02-13T07:33:33.466Z,3.00
2023-02-13T07:36:03.846Z,2.92
2023-02-13T07:38:34.509Z,2.75
2023-02-13T07:41:04.958Z,3.06
2023-02-13T07:43:33.261Z,3.08
2023-02-13T07:46:04.045Z,3.09
2023-02-13T07:48:32.754Z,3.08
2023-02-13T07:51:05.910Z,3.09
2023-02-13T07:53:34.330Z,3.13
2023-02-13T07:56:11.762Z,3.20
2023-02-13T07:58:41.351Z,3.22
2023-02-13T08:01:12.202Z,3.27
2023-02-13T08:03:42.561Z,3.30
2023-02-13T08:06:12.175Z,3.32
2023-02-13T08:08:41.469Z,3.44
2023-02-13T08:12:01.042Z,3.47
2023-02-13T08:14:29.314Z,3.48
2023-02-13T08:17:01.306Z,3.52
2023-02-13T08:19:30.472Z,3.27
2023-02-13T08:21:59.157Z,3.51
2023-02-13T08:24:28.279Z,3.08
2023-02-13T08:26:57.438Z,3.49
2023-02-13T08:29:26.603Z,3.86
2023-02-13T08:31:55.004Z,3.98
2023-02-13T08:34:23.435Z,3.79
2023-02-13T08:36:51.828Z,3.98
2023-02-13T08:39:20.285Z,4.27
2023-02-13T08:41:48.395Z,4.30
2023-02-13T08:44:16.749Z,4.39
2023-02-13T08:46:45.232Z,4.60
2023-02-13T08:49:13.857Z,4.52
2023-02-13T08:51:42.469Z,4.38
2023-02-13T08:54:10.568Z,4.16
2023-02-13T08:56:39.194Z,4.11
2023-02-13T08:59:07.969Z,4.39
2023-02-13T09:01:37.263Z,4.55
2023-02-13T09:04:05.913Z,4.70
2023-02-13T09:06:34.716Z,4.89
2023-02-13T09:09:05.115Z,4.91
2023-02-13T09:11:33.638Z,4.52
2023-02-13T09:14:03.067Z,4.85
2023-02-13T09:16:31.872Z,4.85
2023-02-13T09:19:07.793Z,4.82
2023-02-13T09:21:37.461Z,4.99
2023-02-13T09:24:12.206Z,5.07
2023-02-13T09:26:41.085Z,5.12
2023-02-13T09:29:09.781Z,5.29
2023-02-13T09:31:38.216Z,5.08
2023-02-13T09:34:06.540Z,5.35
2023-02-13T09:36:37.012Z,5.44
2023-02-13T09:39:05.235Z,5.20
2023-02-13T09:41:42.380Z,5.52
2023-02-13T09:44:36.412Z,5.48
2023-02-13T09:47:33.115Z,5.55
2023-02-13T09:50:19.260Z,5.37
2023-02-13T09:52:50.362Z,5.59
2023-02-13T09:55:27.694Z,5.53
2023-02-13T09:58:34.018Z,5.54
2023-02-13T10:01:10.596Z,5.51
2023-02-13T10:04:05.997Z,5.43
2023-02-13T10:06:50.272Z,5.50
2023-02-13T10:09:54.098Z,5.44
2023-02-13T10:12:39.923Z,5.70
2023-02-13T10:15:41.164Z,5.93
2023-02-13T10:18:55.671Z,5.79
2023-02-13T10:21:37.714Z,5.84
2023-02-13T10:24:21.549Z,5.63
2023-02-13T10:26:50.029Z,6.03
2023-02-13T10:29:48.570Z,5.92
2023-02-13T10:32:23.142Z,5.72
2023-02-13T10:34:55.369Z,6.24
2023-02-13T10:37:23.760Z,6.24
2023-02-13T10:39:56.495Z,6.14
2023-02-13T10:46:16.136Z,6.31
2023-02-13T10:49:34.382Z,6.11
2023-02-13T10:52:05.298Z,6.15
2023-02-13T10:55:23.419Z,6.08
2023-02-13T10:58:25.101Z,5.97
2023-02-13T11:01:02.964Z,5.98
2023-02-13T11:03:31.655Z,5.85
2023-02-13T11:06:06.473Z,5.62
2023-02-13T11:08:40.903Z,5.84
2023-02-13T11:11:40.476Z,5.91
2023-02-13T11:14:10.680Z,6.10
2023-02-13T11:17:03.241Z,6.06
2023-02-13T11:19:40.799Z,6.28
2023-02-13T11:22:14.545Z,6.27
2023-02-13T11:24:55.738Z,6.27
2023-02-13T11:27:31.312Z,6.12
2023-02-13T11:30:23.823Z,5.91
2023-02-13T11:33:04.953Z,5.93
2023-02-13T11:35:39.948Z,5.80
2023-02-13T11:38:18.312Z,5.79
2023-02-13T11:41:12.103Z,5.85
2023-02-13T11:44:01.848Z,6.12
2023-02-13T11:46:44.102Z,6.35
2023-02-13T11:49:29.670Z,6.36
2023-02-13T11:52:05.139Z,6.31
2023-02-13T11:54:39.363Z,6.27
2023-02-13T11:57:44.035Z,6.16
2023-02-13T12:00:37.656Z,6.04
2023-02-13T12:03:31.365Z,5.85
2023-02-13T12:06:16.610Z,5.60
2023-02-13T12:08:50.688Z,5.85
2023-02-13T12:12:00.154Z,5.89
2023-02-13T12:14:37.376Z,5.80
2023-02-13T12:17:32.575Z,5.81
2023-02-13T12:20:02.087Z,5.80
2023-02-13T12:22:53.459Z,5.83
2023-02-13T12:26:17.900Z,5.87
2023-02-13T12:29:37.585Z,5.98
2023-02-13T12:32:21.207Z,5.82
2023-02-13T12:35:27.289Z,5.97
2023-02-13T12:38:02.751Z,5.97
2023-02-13T12:41:03.744Z,5.66
2023-02-13T12:44:10.381Z,5.37
2023-02-13T12:47:21.524Z,5.42
2023-02-13T12:50:29.316Z,5.31
2023-02-13T12:53:09.742Z,5.05
2023-02-13T12:56:18.611Z,4.88
2023-02-13T12:59:01.156Z,4.78
2023-02-13T13:02:08.181Z,4.73
2023-02-13T13:05:01.780Z,4.65
2023-02-13T13:08:21.404Z,4.84
2023-02-13T13:11:06.395Z,5.09
2023-02-13T13:14:16.191Z,5.27
2023-02-13T13:17:22.962Z,5.36
2023-02-13T13:20:02.124Z,5.42
2023-02-13T13:22:53.664Z,5.38
2023-02-13T13:25:34.789Z,5.26
2023-02-13T13:28:14.859Z,5.24
2023-02-13T13:30:44.593Z,5.16
2023-02-13T13:33:23.498Z,5.10
2023-02-13T13:36:31.508Z,5.15
2023-02-13T13:39:37.140Z,5.23
2023-02-13T13:42:24.480Z,5.13
2023-02-13T13:45:08.952Z,5.19
2023-02-13T13:48:07.878Z,5.10
2023-02-13T13:50:41.965Z,5.09
2023-02-13T13:53:26.524Z,5.11
2023-02-13T13:56:00.514Z,5.18
2023-02-13T13:58:48.172Z,5.16
2023-02-13T14:01:24.228Z,5.10
2023-02-13T14:04:35.714Z,5.07
2023-02-13T14:07:05.304Z,5.08
2023-02-13T14:09:43.767Z,4.76
2023-02-13T14:12:31.012Z,5.23
2023-02-13T14:15:01.389Z,4.91
2023-02-13T14:17:45.930Z,5.17
2023-02-13T14:20:51.998Z,5.17
2023-02-13T14:23:53.747Z,5.12
2023-02-13T14:26:36.574Z,5.02
2023-02-13T14:29:32.055Z,4.98
2023-02-13T14:32:20.543Z,4.96
2023-02-13T14:35:28.542Z,4.85
2023-02-13T14:38:01.027Z,4.69
2023-02-13T14:40:55.869Z,4.94
2023-02-13T14:43:54.566Z,4.91
2023-02-13T14:46:43.193Z,4.94
2023-02-13T14:49:21.074Z,4.85
2023-02-13T14:52:02.533Z,4.81
2023-02-13T14:54:52.206Z,4.83
2023-02-13T14:57:39.904Z,4.84
2023-02-13T15:00:58.538Z,4.78
2023-02-13T15:03:55.126Z,4.53
2023-02-13T15:06:33.195Z,4.66
2023-02-13T15:09:15.878Z,4.69
2023-02-13T15:11:45.998Z,4.52
2023-02-13T15:14:36.082Z,4.32
2023-02-13T15:17:24.773Z,4.67
2023-02-13T15:19:57.735Z,4.63
2023-02-13T15:22:36.062Z,4.52
2023-02-13T15:25:09.055Z,4.50
2023-02-13T15:27:43.995Z,4.24
2023-02-13T15:30:26.410Z,4.42
2023-02-13T15:33:05.223Z,4.18
2023-02-13T15:35:38.069Z,4.37
2023-02-13T15:38:39.625Z,4.20
2023-02-13T15:41:18.901Z,4.38
2023-02-13T15:43:52.832Z,4.38
2023-02-13T15:46:36.903Z,4.40
2023-02-13T15:49:07.452Z,4.07
2023-02-13T15:51:36.349Z,4.33
2023-02-13T15:54:31.213Z,3.80
2023-02-13T15:57:08.225Z,4.20
2023-02-13T15:59:39.595Z,4.18
2023-02-13T16:02:30.334Z,4.23
2023-02-13T16:05:02.160Z,4.20
2023-02-13T16:07:31.417Z,3.35
2023-02-13T16:10:27.274Z,4.12
2023-02-13T16:12:58.392Z,4.16
2023-02-13T16:15:32.704Z,3.83
2023-02-13T16:18:02.536Z,4.11
2023-02-13T16:20:36.043Z,4.05
2023-02-13T16:23:23.395Z,3.82
2023-02-13T16:25:52.341Z,4.05
2023-02-13T16:28:26.524Z,4.01
2023-02-13T16:31:01.193Z,3.70
2023-02-13T16:33:42.345Z,3.80
2023-02-13T16:36:10.549Z,3.99
2023-02-13T16:38:51.175Z,3.98
2023-02-13T16:41:26.084Z,3.97
2023-02-13T16:44:03.225Z,3.96
2023-02-13T16:49:57.568Z,3.68
2023-02-13T16:52:27.084Z,3.94
2023-02-13T16:55:00.990Z,3.97
2023-02-13T16:57:36.290Z,3.97
2023-02-13T17:00:24.499Z,3.97
2023-02-13T17:02:54.538Z,3.95
2023-02-13T17:05:28.742Z,3.94
2023-02-13T17:07:59.616Z,3.67
2023-02-13T17:10:34.325Z,3.86
2023-02-13T17:13:11.756Z,3.84
2023-02-13T17:15:49.399Z,3.77
2023-02-13T17:18:19.209Z,3.83
2023-02-13T17:20:49.801Z,3.77
2023-02-13T17:23:27.642Z,3.80
2023-02-13T17:25:56.973Z,3.68
2023-02-13T17:28:30.800Z,3.71
2023-02-13T17:31:00.087Z,3.51
2023-02-13T17:33:37.828Z,3.81
2023-02-13T17:36:08.859Z,3.77
2023-02-13T17:38:38.321Z,3.50
2023-02-13T17:41:15.252Z,3.78
2023-02-13T17:43:44.120Z,3.51
2023-02-13T17:46:13.314Z,3.59
2023-02-13T17:48:41.980Z,3.67
2023-02-13T17:51:14.625Z,3.43
2023-02-13T17:53:44.787Z,3.26
2023-02-13T17:56:13.504Z,3.46
2023-02-13T17:58:42.619Z,3.73
2023-02-13T18:01:12.319Z,3.76
2023-02-13T18:03:40.754Z,3.76
2023-02-13T18:06:15.055Z,3.75
2023-02-13T18:08:47.147Z,3.74
2023-02-13T18:11:15.757Z,3.54
2023-02-13T18:13:48.559Z,3.47
2023-02-13T18:16:17.360Z,3.48
2023-02-13T18:18:45.656Z,3.75
2023-02-13T18:21:14.345Z,3.50
2023-02-13T18:23:42.986Z,3.72
2023-02-13T18:26:11.460Z,3.72
2023-02-13T18:28:41.661Z,3.69
2023-02-13T18:31:11.230Z,3.58
2023-02-13T18:33:39.612Z,3.70
2023-02-13T18:36:08.301Z,3.64
2023-02-13T18:38:37.695Z,3.65
2023-02-13T18:41:06.267Z,3.41
2023-02-13T18:43:35.580Z,3.62
2023-02-13T18:46:04.991Z,3.64
2023-02-13T18:48:33.240Z,3.62
2023-02-13T18:51:01.822Z,3.61
2023-02-13T18:53:31.029Z,3.63
2023-02-13T18:56:08.322Z,3.49
2023-02-13T18:58:37.117Z,3.59
2023-02-13T19:01:18.567Z,3.61
2023-02-13T19:03:49.068Z,3.34
2023-02-13T19:06:22.583Z,3.51
2023-02-13T19:08:52.053Z,3.51
2023-02-13T19:11:24.576Z,3.50
2023-02-13T19:13:59.716Z,3.34
2023-02-13T19:16:31.167Z,3.27
2023-02-13T19:19:04.085Z,3.48
2023-02-13T19:21:35.915Z,3.09
2023-02-13T19:24:07.932Z,3.52
2023-02-13T19:26:37.124Z,3.32
2023-02-13T19:29:06.318Z,3.29
2023-02-13T19:31:38.606Z,3.51
2023-02-13T19:34:07.270Z,3.49
2023-02-13T19:36:38.351Z,3.50
2023-02-13T19:39:09.780Z,3.48
2023-02-13T19:41:41.246Z,3.50
2023-02-13T19:44:09.978Z,3.22
2023-02-13T19:46:39.326Z,3.48
2023-02-13T19:49:07.814Z,3.50
2023-02-13T19:51:38.414Z,3.32
2023-02-13T19:54:09.140Z,3.51
2023-02-13T19:56:40.569Z,3.51
2023-02-13T19:59:13.764Z,3.26
2023-02-13T20:01:43.417Z,3.52
2023-02-13T20:04:12.272Z,3.49
2023-02-13T20:06:41.657Z,3.51
2023-02-13T20:09:14.733Z,3.46
2023-02-13T20:11:45.968Z,3.49
2023-02-13T20:14:17.502Z,3.52
2023-02-13T20:16:47.608Z,3.39
2023-02-13T20:19:16.399Z,3.22
2023-02-13T20:21:46.561Z,3.54
2023-02-13T20:24:15.118Z,3.56
2023-02-13T20:26:43.941Z,3.59
2023-02-13T20:29:12.701Z,3.46
2023-02-13T20:31:41.986Z,3.56
2023-02-13T20:34:11.422Z,3.54
2023-02-13T20:36:40.183Z,3.48
2023-02-13T20:39:09.344Z,3.59
2023-02-13T20:41:39.206Z,3.57
2023-02-13T20:44:13.703Z,3.55
2023-02-13T20:46:42.325Z,3.51
2023-02-13T20:49:12.357Z,3.59
2023-02-13T20:51:41.241Z,3.58
2023-02-13T20:54:10.986Z,3.23
2023-02-13T20:56:40.955Z,3.25
2023-02-13T20:59:09.639Z,3.58
2023-02-13T21:01:42.531Z,3.59
2023-02-13T21:04:19.497Z,3.32
2023-02-13T21:06:48.922Z,3.55
2023-02-13T21:09:17.904Z,3.53
2023-02-13T21:11:46.499Z,3.32
2023-02-13T21:14:15.476Z,3.24
2023-02-13T21:16:44.216Z,3.31
2023-02-13T21:19:19.383Z,3.56
2023-02-13T21:21:48.869Z,3.26
2023-02-13T21:24:22.600Z,3.58
2023-02-13T21:26:53.420Z,3.56
2023-02-13T21:29:21.852Z,3.59
2023-02-13T21:31:51.417Z,3.49
2023-02-13T21:34:20.437Z,3.57
2023-02-13T21:36:49.891Z,3.56
2023-02-13T21:39:18.323Z,3.51
2023-02-13T21:41:47.585Z,3.55
2023-02-13T21:44:16.892Z,3.58
2023-02-13T21:46:46.016Z,3.57
2023-02-13T21:49:18.580Z,3.61
2023-02-13T21:51:47.314Z,3.26
2023-02-13T21:54:15.617Z,3.59
2023-02-13T21:56:44.798Z,3.53
2023-02-13T21:59:17.655Z,3.55
2023-02-13T22:01:50.401Z,3.50
2023-02-13T22:04:19.405Z,3.24
2023-02-13T22:06:51.377Z,3.55
2023-02-13T22:09:22.700Z,3.54
2023-02-13T22:11:53.549Z,3.50
2023-02-13T22:14:22.536Z,3.55
2023-02-13T22:16:52.279Z,3.54
2023-02-13T22:19:21.270Z,3.52
2023-02-13T22:21:50.001Z,3.58
2023-02-13T22:24:18.659Z,3.54
2023-02-13T22:26:47.402Z,3.53
2023-02-13T22:29:18.783Z,3.50
2023-02-13T22:31:47.895Z,3.45
2023-02-13T22:34:16.708Z,3.55
2023-02-13T22:36:45.114Z,3.55
2023-02-13T22:39:14.115Z,3.52
2023-02-13T22:41:46.177Z,3.56
2023-02-13T22:44:16.738Z,3.54
2023-02-13T22:46:46.296Z,3.55
2023-02-13T22:49:15.137Z,3.58
2023-02-13T22:51:43.578Z,3.27
2023-02-13T22:54:11.940Z,3.54
2023-02-13T22:56:40.768Z,3.50
2023-02-13T22:59:10.618Z,3.53
2023-02-13T23:01:39.971Z,3.49
2023-02-13T23:04:08.956Z,3.40
2023-02-13T23:06:37.322Z,3.45
2023-02-13T23:09:05.321Z,3.46
2023-02-13T23:11:52.387Z,3.40
2023-02-13T23:14:24.973Z,3.48
2023-02-13T23:17:12.036Z,3.46
2023-02-13T23:19:40.895Z,3.32
2023-02-13T23:22:09.036Z,3.48
2023-02-13T23:24:37.549Z,3.46
2023-02-13T23:27:06.384Z,3.46
2023-02-13T23:29:34.871Z,3.41
2023-02-13T23:32:03.517Z,3.32
2023-02-13T23:34:31.946Z,3.35
2023-02-13T23:37:00.001Z,3.09
2023-02-13T23:39:28.209Z,3.45
2023-02-13T23:41:56.863Z,3.12
2023-02-13T23:44:24.912Z,3.41
2023-02-13T23:46:53.282Z,3.44
2023-02-13T23:49:22.604Z,3.46
2023-02-13T23:51:50.694Z,3.27
2023-02-13T23:54:22.244Z,3.47
2023-02-13T23:56:53.025Z,3.48
2023-02-13T23:59:23.971Z,3.47
